Time;durP1;ratioP1;P1;durP2;ratioP2;P2;SDS_P1;SDS_P2;PMS_P1;PMS_P2;Temp;Humidity;BMP_temperature;BMP_pressure;BME280_temperature;BME280_humidity;BME280_pressure;Samples;Min_cycle;Max_cycle;Signal;HPM_P1;HPM_P2
2021/03/01 00:00:05;;;;;;;26.17;12.43;;;3.80;99.90;;;;;;5072045;28;20199;-85
2021/03/01 00:02:31;;;;;;;22.40;11.57;;;3.80;99.90;;;;;;5072949;28;20203;-84
2021/03/01 00:04:57;;;;;;;24.97;12.53;;;3.90;99.90;;;;;;5064800;28;20198;-84
2021/03/01 00:07:24;;;;;;;23.70;11.83;;;3.90;99.90;;;;;;5072610;28;20275;-85
2021/03/01 00:09:51;;;;;;;22.37;11.50;;;4.00;99.90;;;;;;5070398;28;20199;-86
2021/03/01 00:12:17;;;;;;;23.33;11.90;;;4.00;99.90;;;;;;5073119;28;20203;-85
2021/03/01 00:14:43;;;;;;;24.70;11.70;;;4.10;99.90;;;;;;5067069;28;20225;-84
2021/03/01 00:17:10;;;;;;;22.23;11.70;;;4.10;99.90;;;;;;5065353;28;20202;-84
2021/03/01 00:19:37;;;;;;;23.43;12.07;;;4.10;99.90;;;;;;5071155;28;20202;-84
2021/03/01 00:22:03;;;;;;;23.10;11.60;;;4.10;99.90;;;;;;5070250;28;20214;-84
2021/03/01 00:24:30;;;;;;;24.13;11.57;;;4.20;99.90;;;;;;5068635;28;20602;-84
2021/03/01 00:26:56;;;;;;;22.80;12.30;;;4.20;99.90;;;;;;5062543;28;20195;-84
2021/03/01 00:29:23;;;;;;;24.87;12.73;;;4.20;99.90;;;;;;5066909;28;20195;-84
2021/03/01 00:31:49;;;;;;;23.70;12.03;;;4.20;99.90;;;;;;5067464;28;20194;-84
2021/03/01 00:34:15;;;;;;;24.00;11.80;;;4.30;99.90;;;;;;5063601;28;20249;-84
2021/03/01 00:36:41;;;;;;;26.10;12.40;;;4.30;99.90;;;;;;5078694;28;20202;-84
2021/03/01 00:39:08;;;;;;;24.50;13.20;;;4.30;99.90;;;;;;5066123;28;20264;-84
2021/03/01 00:41:35;;;;;;;23.53;11.60;;;4.30;99.90;;;;;;5063900;28;20202;-87
2021/03/01 00:44:01;;;;;;;24.83;12.20;;;4.30;99.90;;;;;;5062673;28;20274;-84
2021/03/01 00:46:27;;;;;;;25.73;12.27;;;4.30;99.90;;;;;;5064800;28;20205;-84
2021/03/01 00:48:54;;;;;;;23.17;11.20;;;4.40;99.90;;;;;;5062332;28;20194;-84
2021/03/01 00:51:20;;;;;;;24.67;12.30;;;4.40;99.90;;;;;;5060695;28;20838;-85
2021/03/01 00:53:46;;;;;;;25.83;11.87;;;4.40;99.90;;;;;;5063384;28;20223;-85
2021/03/01 00:56:12;;;;;;;26.23;12.23;;;4.40;99.90;;;;;;5062479;28;20214;-84
2021/03/01 00:58:40;;;;;;;23.73;11.37;;;4.40;99.90;;;;;;5064052;28;20199;-86
2021/03/01 01:01:06;;;;;;;26.57;12.63;;;4.40;99.90;;;;;;5064926;28;20210;-83
2021/03/01 01:03:32;;;;;;;23.57;12.07;;;4.40;99.90;;;;;;5069211;28;20229;-84
2021/03/01 01:05:59;;;;;;;24.07;11.20;;;4.40;99.90;;;;;;5065859;28;21793;-84
2021/03/01 01:08:25;;;;;;;24.07;11.73;;;4.50;99.90;;;;;;5065091;28;20724;-85
2021/03/01 01:10:51;;;;;;;26.07;12.77;;;4.40;99.90;;;;;;5062962;28;20203;-86
2021/03/01 01:13:17;;;;;;;24.17;11.43;;;4.40;99.90;;;;;;5068725;28;20225;-85
2021/03/01 01:15:45;;;;;;;26.50;12.33;;;4.40;99.90;;;;;;5064312;28;20221;-84
2021/03/01 01:18:11;;;;;;;23.23;11.53;;;4.30;99.90;;;;;;5069974;28;20204;-85
2021/03/01 01:20:37;;;;;;;25.63;13.03;;;4.40;99.90;;;;;;5062042;28;20263;-84
2021/03/01 01:23:04;;;;;;;23.77;11.73;;;4.50;99.90;;;;;;5074338;28;20225;-84
2021/03/01 01:25:30;;;;;;;24.83;11.90;;;4.50;99.90;;;;;;5063641;28;20207;-84
2021/03/01 01:27:56;;;;;;;26.03;12.07;;;4.50;99.90;;;;;;5072821;28;20202;-84
2021/03/01 01:30:25;;;;;;;25.50;13.20;;;4.50;99.90;;;;;;5071155;28;20213;-84
2021/03/01 01:32:52;;;;;;;32.27;13.07;;;4.40;99.90;;;;;;5062399;28;20219;-84
2021/03/01 01:35:19;;;;;;;23.80;11.57;;;4.50;99.90;;;;;;5065445;28;20312;-84
2021/03/01 01:37:46;;;;;;;23.73;11.80;;;4.40;99.90;;;;;;5069587;28;20194;-84
2021/03/01 01:40:15;;;;;;;23.80;12.00;;;4.40;99.90;;;;;;5070565;28;20597;-84
2021/03/01 01:42:41;;;;;;;21.47;11.00;;;4.50;99.90;;;;;;5067767;28;20218;-84
2021/03/01 01:45:10;;;;;;;23.13;11.90;;;4.60;99.90;;;;;;5064136;28;20209;-85
2021/03/01 01:47:36;;;;;;;21.00;11.37;;;4.60;99.90;;;;;;5063560;28;20219;-85
2021/03/01 01:50:05;;;;;;;25.13;12.33;;;4.50;99.90;;;;;;5073289;28;20199;-84
2021/03/01 01:52:31;;;;;;;23.77;12.37;;;4.50;99.90;;;;;;5072303;28;20205;-83
2021/03/01 01:54:58;;;;;;;23.73;11.57;;;4.60;99.90;;;;;;5066838;28;20244;-84
2021/03/01 01:57:25;;;;;;;22.50;11.17;;;4.60;99.90;;;;;;5071404;28;20210;-84
2021/03/01 01:59:51;;;;;;;21.23;10.73;;;4.60;99.90;;;;;;5062073;28;20655;-84
2021/03/01 02:02:18;;;;;;;22.20;11.60;;;4.50;99.90;;;;;;5075374;28;20695;-84
2021/03/01 02:04:48;;;;;;;23.93;12.60;;;4.60;99.90;;;;;;5068234;28;20675;-85
2021/03/01 02:07:23;;;;;;;27.87;13.53;;;4.60;99.90;;;;;;5064478;28;20207;-85
2021/03/01 02:10:03;;;;;;;22.90;11.53;;;4.80;99.90;;;;;;5074207;28;20193;-84
2021/03/01 02:12:45;;;;;;;24.40;12.47;;;4.70;99.90;;;;;;5073556;28;20251;-84
2021/03/01 02:15:18;;;;;;;24.00;11.97;;;4.70;99.90;;;;;;5071315;28;20293;-84
2021/03/01 02:17:45;;;;;;;24.00;12.13;;;4.60;99.90;;;;;;5067547;28;20697;-85
2021/03/01 02:20:11;;;;;;;24.27;12.50;;;4.70;99.90;;;;;;5078399;28;20628;-84
2021/03/01 02:22:39;;;;;;;23.37;11.40;;;4.60;99.90;;;;;;5078892;28;20218;-84
2021/03/01 02:25:09;;;;;;;25.13;12.80;;;4.60;99.90;;;;;;5071902;28;20684;-84
2021/03/01 02:27:39;;;;;;;22.07;12.33;;;4.70;99.90;;;;;;5072770;28;20681;-87
2021/03/01 02:30:12;;;;;;;24.33;11.67;;;4.70;99.90;;;;;;5071620;28;20262;-85
2021/03/01 02:32:40;;;;;;;23.77;11.67;;;4.70;99.90;;;;;;5071764;28;20259;-85
2021/03/01 02:35:08;;;;;;;27.20;13.27;;;4.70;99.90;;;;;;5079164;28;20664;-84
2021/03/01 02:37:38;;;;;;;24.17;12.30;;;4.70;99.90;;;;;;5073257;28;20209;-84
2021/03/01 02:40:08;;;;;;;23.70;11.87;;;4.70;99.90;;;;;;5079805;28;20194;-84
2021/03/01 02:42:37;;;;;;;22.70;11.37;;;4.80;99.90;;;;;;5073554;28;20234;-84
2021/03/01 02:45:05;;;;;;;24.20;12.50;;;4.80;99.90;;;;;;5072453;28;20575;-85
2021/03/01 02:47:32;;;;;;;22.63;12.13;;;4.70;99.90;;;;;;5096533;28;20202;-84
2021/03/01 02:50:00;;;;;;;22.17;11.70;;;4.70;99.90;;;;;;5084016;28;20290;-84
2021/03/01 02:52:28;;;;;;;25.23;13.13;;;4.70;99.90;;;;;;5079572;28;20671;-84
2021/03/01 02:54:56;;;;;;;24.43;12.90;;;4.70;99.90;;;;;;5073847;28;20229;-85
2021/03/01 02:57:24;;;;;;;24.83;12.63;;;4.70;99.90;;;;;;5068900;28;20236;-86
2021/03/01 02:59:53;;;;;;;24.87;13.00;;;4.70;99.90;;;;;;5073681;28;20395;-85
2021/03/01 03:02:20;;;;;;;26.00;13.03;;;4.70;99.90;;;;;;5083889;28;20209;-85
2021/03/01 03:04:48;;;;;;;24.13;12.60;;;4.80;99.90;;;;;;5068763;28;20202;-85
2021/03/01 03:07:17;;;;;;;23.87;12.03;;;4.80;99.90;;;;;;5073147;28;20214;-85
2021/03/01 03:09:45;;;;;;;25.57;12.20;;;4.80;99.90;;;;;;5071791;28;20201;-85
2021/03/01 03:12:13;;;;;;;24.97;12.30;;;4.80;99.90;;;;;;5076880;28;20216;-85
2021/03/01 03:14:41;;;;;;;23.30;12.43;;;4.80;99.90;;;;;;5074647;28;20732;-86
2021/03/01 03:17:09;;;;;;;26.53;12.50;;;4.80;99.90;;;;;;5073662;28;20204;-85
2021/03/01 03:19:36;;;;;;;22.20;11.57;;;4.80;99.90;;;;;;5070656;28;20205;-84
2021/03/01 03:22:03;;;;;;;23.73;13.00;;;4.70;99.90;;;;;;5073672;28;20207;-86
2021/03/01 03:24:29;;;;;;;23.53;11.93;;;4.60;99.90;;;;;;5078113;28;20218;-86
2021/03/01 03:26:55;;;;;;;26.30;13.03;;;4.70;99.90;;;;;;5079841;28;20202;-85
2021/03/01 03:29:21;;;;;;;21.90;11.57;;;4.70;99.90;;;;;;5072833;28;20207;-85
2021/03/01 03:31:49;;;;;;;23.90;12.93;;;4.70;99.90;;;;;;5079235;28;20206;-85
2021/03/01 03:34:15;;;;;;;25.67;12.83;;;4.70;99.90;;;;;;5073701;28;20315;-84
2021/03/01 03:36:46;;;;;;;24.60;12.50;;;4.70;99.90;;;;;;5073365;28;20213;-85
2021/03/01 03:39:16;;;;;;;25.47;12.07;;;4.60;99.90;;;;;;5079746;28;20210;-85
2021/03/01 03:41:46;;;;;;;22.90;11.87;;;4.70;99.90;;;;;;5085883;28;20208;-85
2021/03/01 03:44:17;;;;;;;24.37;11.77;;;4.70;99.90;;;;;;5082178;28;20225;-84
2021/03/01 03:46:43;;;;;;;27.83;12.80;;;4.80;99.90;;;;;;5078082;28;20206;-85
2021/03/01 03:49:11;;;;;;;26.33;13.07;;;4.70;99.90;;;;;;5078766;28;20202;-85
2021/03/01 03:51:38;;;;;;;25.43;12.77;;;4.80;99.90;;;;;;5072837;28;20199;-85
2021/03/01 03:54:13;;;;;;;24.03;11.97;;;4.70;99.90;;;;;;5078041;28;20218;-86
2021/03/01 03:56:42;;;;;;;22.40;11.77;;;4.60;99.90;;;;;;5077819;28;20589;-85
2021/03/01 03:59:11;;;;;;;23.67;11.97;;;4.60;99.90;;;;;;5079130;28;20193;-85
2021/03/01 04:01:40;;;;;;;25.00;12.27;;;4.60;99.90;;;;;;5079152;28;20209;-85
2021/03/01 04:04:08;;;;;;;27.17;12.83;;;4.60;99.90;;;;;;5079050;28;20229;-85
2021/03/01 04:06:39;;;;;;;23.33;11.70;;;4.60;99.90;;;;;;5083488;28;20213;-85
2021/03/01 04:09:07;;;;;;;24.83;13.00;;;4.60;99.90;;;;;;5075336;28;20690;-85
2021/03/01 04:11:35;;;;;;;26.17;13.03;;;4.60;99.90;;;;;;5081933;28;20201;-86
2021/03/01 04:14:02;;;;;;;25.93;13.10;;;4.60;99.90;;;;;;5074133;28;20284;-86
2021/03/01 04:16:33;;;;;;;25.57;13.20;;;4.70;99.90;;;;;;5085487;28;20612;-84
2021/03/01 04:19:03;;;;;;;25.00;12.37;;;4.70;99.90;;;;;;5075768;28;20256;-86
2021/03/01 04:21:31;;;;;;;26.87;13.03;;;4.60;99.90;;;;;;5081620;28;20246;-85
2021/03/01 04:24:00;;;;;;;21.43;10.03;;;4.60;99.90;;;;;;5082353;28;20230;-86
2021/03/01 04:26:27;;;;;;;23.90;12.60;;;4.50;99.90;;;;;;5085791;28;20587;-85
2021/03/01 04:28:53;;;;;;;25.10;12.03;;;4.50;99.90;;;;;;5078515;28;20198;-85
2021/03/01 04:31:21;;;;;;;25.40;11.70;;;4.60;99.90;;;;;;5069576;28;20580;-85
2021/03/01 04:33:50;;;;;;;24.27;11.40;;;4.60;99.90;;;;;;5078390;28;20232;-86
2021/03/01 04:36:17;;;;;;;20.93;10.77;;;4.70;99.90;;;;;;5077781;28;20603;-86
2021/03/01 04:38:44;;;;;;;20.00;10.27;;;4.70;99.90;;;;;;5077783;28;20195;-85
2021/03/01 04:41:13;;;;;;;25.90;11.37;;;4.70;99.90;;;;;;5078228;28;20190;-85
2021/03/01 04:43:42;;;;;;;21.73;10.97;;;4.70;99.90;;;;;;5078338;28;20225;-85
2021/03/01 04:46:09;;;;;;;23.00;11.77;;;4.70;99.90;;;;;;5082248;28;20198;-85
2021/03/01 04:48:37;;;;;;;22.53;11.07;;;4.90;99.90;;;;;;5085321;28;20223;-86
2021/03/01 04:51:05;;;;;;;17.13;9.13;;;4.70;99.90;;;;;;5077341;28;20556;-85
2021/03/01 04:53:33;;;;;;;21.67;9.83;;;4.50;99.90;;;;;;5083988;28;20225;-85
2021/03/01 04:56:00;;;;;;;19.27;9.83;;;4.60;99.90;;;;;;5070772;28;20218;-85
2021/03/01 04:58:29;;;;;;;17.73;9.40;;;4.60;99.90;;;;;;5075596;28;20199;-86
2021/03/01 05:00:55;;;;;;;20.03;10.40;;;4.70;99.90;;;;;;5082909;28;20201;-85
2021/03/01 05:03:22;;;;;;;19.40;11.03;;;4.80;99.90;;;;;;5075160;28;20218;-85
2021/03/01 05:05:49;;;;;;;19.30;10.07;;;4.80;99.90;;;;;;5078344;28;20190;-86
2021/03/01 05:08:17;;;;;;;20.33;10.23;;;4.70;99.90;;;;;;5081208;28;20565;-85
2021/03/01 05:10:46;;;;;;;25.37;12.93;;;4.70;99.90;;;;;;5087755;28;20204;-85
2021/03/01 05:13:12;;;;;;;23.20;12.17;;;4.70;99.90;;;;;;5094799;28;20225;-85
2021/03/01 05:15:39;;;;;;;24.87;12.40;;;4.80;99.90;;;;;;5094187;28;20269;-87
2021/03/01 05:18:06;;;;;;;27.97;14.77;;;4.80;99.90;;;;;;5084257;28;20201;-85
2021/03/01 05:20:32;;;;;;;27.07;13.27;;;4.90;99.90;;;;;;5091935;28;20205;-84
2021/03/01 05:22:58;;;;;;;27.00;13.73;;;4.80;99.90;;;;;;5074330;28;20795;-85
2021/03/01 05:25:24;;;;;;;27.33;14.30;;;4.80;99.90;;;;;;5084969;28;20214;-84
2021/03/01 05:27:51;;;;;;;29.03;14.10;;;4.70;99.90;;;;;;5078711;28;20204;-84
2021/03/01 05:30:18;;;;;;;27.30;13.30;;;4.70;99.90;;;;;;5083422;28;20229;-85
2021/03/01 05:32:45;;;;;;;27.23;14.70;;;4.80;99.90;;;;;;5075310;28;20243;-85
2021/03/01 05:35:12;;;;;;;28.50;13.77;;;4.80;99.90;;;;;;5065787;28;20730;-85
2021/03/01 05:37:38;;;;;;;23.97;11.50;;;4.80;99.90;;;;;;5075252;28;20202;-84
2021/03/01 05:40:06;;;;;;;20.63;10.67;;;4.70;99.90;;;;;;5066989;28;20195;-85
2021/03/01 05:42:35;;;;;;;21.53;10.67;;;4.60;99.90;;;;;;5076605;28;20695;-86
2021/03/01 05:45:03;;;;;;;25.40;12.77;;;4.60;99.90;;;;;;5075141;28;20205;-86
2021/03/01 05:47:31;;;;;;;25.93;13.17;;;4.60;99.90;;;;;;5074675;28;20213;-85
2021/03/01 05:49:59;;;;;;;23.23;12.00;;;4.50;99.90;;;;;;5069809;28;20207;-85
2021/03/01 05:52:28;;;;;;;24.60;12.83;;;4.60;99.90;;;;;;5077644;28;20195;-86
2021/03/01 05:54:54;;;;;;;23.77;13.27;;;4.70;99.90;;;;;;5078321;28;20218;-85
2021/03/01 05:57:22;;;;;;;25.03;13.77;;;4.70;99.90;;;;;;5069240;28;20226;-85
2021/03/01 05:59:49;;;;;;;23.70;12.00;;;4.70;99.90;;;;;;5073945;28;20945;-84
2021/03/01 06:02:17;;;;;;;24.00;12.83;;;4.50;99.90;;;;;;5081579;28;20221;-85
2021/03/01 06:04:43;;;;;;;23.50;13.07;;;4.60;99.90;;;;;;5076549;28;20211;-84
2021/03/01 06:07:10;;;;;;;25.40;13.53;;;4.60;99.90;;;;;;5075850;28;20202;-85
2021/03/01 06:09:37;;;;;;;24.27;12.30;;;4.70;99.90;;;;;;5084165;28;20211;-84
2021/03/01 06:12:04;;;;;;;30.00;15.60;;;4.60;99.90;;;;;;5082165;28;20250;-85
2021/03/01 06:14:30;;;;;;;30.73;16.27;;;4.60;99.90;;;;;;5072216;28;20218;-85
2021/03/01 06:17:17;;;;;;;30.77;15.57;;;4.60;99.90;;;;;;5079221;28;20630;-85
2021/03/01 06:19:48;;;;;;;29.23;15.73;;;4.60;99.90;;;;;;5079615;28;20197;-84
2021/03/01 06:22:16;;;;;;;26.57;13.93;;;4.60;99.90;;;;;;5088503;28;20212;-84
2021/03/01 06:24:42;;;;;;;26.53;13.93;;;4.60;99.90;;;;;;5080005;28;20670;-85
2021/03/01 06:27:10;;;;;;;25.30;13.63;;;4.60;99.90;;;;;;5069068;28;20194;-85
2021/03/01 06:30:07;;;;;;;26.60;13.90;;;4.60;99.90;;;;;;5068435;28;20206;-85
2021/03/01 06:32:33;;;;;;;26.70;13.67;;;4.60;99.90;;;;;;5070446;28;20202;-85
2021/03/01 06:35:00;;;;;;;26.60;12.93;;;4.80;99.90;;;;;;5074144;28;20577;-85
2021/03/01 06:37:27;;;;;;;27.97;13.43;;;4.80;99.90;;;;;;5075253;28;20202;-85
2021/03/01 06:39:55;;;;;;;27.23;12.27;;;4.80;99.90;;;;;;5084312;28;20323;-84
2021/03/01 06:42:23;;;;;;;25.33;13.90;;;4.90;99.90;;;;;;5077800;28;20561;-85
2021/03/01 06:45:10;;;;;;;27.17;13.77;;;4.90;99.90;;;;;;5079695;28;20195;-85
2021/03/01 06:47:52;;;;;;;26.37;14.00;;;4.80;99.90;;;;;;5078482;28;20562;-85
2021/03/01 06:50:31;;;;;;;28.27;14.87;;;4.70;99.90;;;;;;5065709;28;20216;-85
2021/03/01 06:53:03;;;;;;;28.30;15.37;;;4.70;99.90;;;;;;5069353;28;20343;-84
2021/03/01 06:55:30;;;;;;;30.33;16.50;;;4.70;99.90;;;;;;5090136;28;20606;-85
2021/03/01 06:57:56;;;;;;;29.20;16.67;;;4.80;99.90;;;;;;5087183;28;20205;-84
2021/03/01 07:00:26;;;;;;;34.13;17.03;;;4.80;99.90;;;;;;5079199;28;20202;-85
2021/03/01 07:02:54;;;;;;;27.73;15.37;;;4.80;99.90;;;;;;5080731;28;20250;-85
2021/03/01 07:05:21;;;;;;;32.23;16.03;;;4.70;99.90;;;;;;5082016;28;20581;-85
2021/03/01 07:07:47;;;;;;;27.67;15.63;;;4.80;99.90;;;;;;5081080;28;20198;-84
2021/03/01 07:10:14;;;;;;;29.63;15.40;;;4.80;99.90;;;;;;5084540;28;20738;-85
2021/03/01 07:12:41;;;;;;;30.97;16.00;;;4.70;99.90;;;;;;5087828;28;20256;-84
2021/03/01 07:15:10;;;;;;;32.17;18.10;;;4.70;99.90;;;;;;5085593;28;20594;-85
2021/03/01 07:17:40;;;;;;;29.93;16.50;;;4.80;99.90;;;;;;5086385;28;20202;-84
2021/03/01 07:20:09;;;;;;;30.57;17.00;;;4.70;99.90;;;;;;5088084;28;20578;-84
2021/03/01 07:22:39;;;;;;;32.37;17.13;;;4.90;99.90;;;;;;5091660;28;20222;-85
2021/03/01 07:25:09;;;;;;;34.30;16.60;;;4.80;99.90;;;;;;5078590;28;20212;-85
2021/03/01 07:27:40;;;;;;;37.07;18.70;;;4.80;99.90;;;;;;5078081;28;20221;-84
2021/03/01 07:30:08;;;;;;;35.87;18.77;;;4.70;99.90;;;;;;5082673;28;20198;-84
2021/03/01 07:32:37;;;;;;;38.43;20.43;;;4.70;99.90;;;;;;5083207;28;20237;-85
2021/03/01 07:35:04;;;;;;;35.03;17.47;;;4.70;99.90;;;;;;5087901;28;20678;-84
2021/03/01 07:37:30;;;;;;;34.77;18.60;;;4.70;99.90;;;;;;5082172;28;20220;-84
2021/03/01 07:39:58;;;;;;;39.40;21.80;;;4.80;99.90;;;;;;5086506;28;20198;-84
2021/03/01 07:42:27;;;;;;;38.03;20.47;;;4.80;99.90;;;;;;5089441;28;20198;-84
2021/03/01 07:44:55;;;;;;;39.73;19.10;;;4.80;99.90;;;;;;5093340;28;20194;-85
2021/03/01 07:47:27;;;;;;;38.43;20.10;;;4.80;99.90;;;;;;5092522;28;20205;-84
2021/03/01 07:49:53;;;;;;;42.17;21.33;;;4.90;99.90;;;;;;5084597;28;20202;-84
2021/03/01 07:52:37;;;;;;;50.63;25.33;;;4.90;99.90;;;;;;5092694;28;20260;-84
2021/03/01 07:55:06;;;;;;;54.87;27.47;;;4.90;99.90;;;;;;5095258;28;20224;-84
2021/03/01 07:57:34;;;;;;;59.07;29.37;;;4.80;99.90;;;;;;5083527;28;20202;-85
2021/03/01 08:00:22;;;;;;;56.63;28.80;;;4.80;99.90;;;;;;5079029;28;20650;-85
2021/03/01 08:02:49;;;;;;;55.53;29.10;;;4.90;99.90;;;;;;5080644;28;20214;-85
2021/03/01 08:05:24;;;;;;;62.37;28.43;;;4.90;99.90;;;;;;5083082;28;20208;-85
2021/03/01 08:07:51;;;;;;;58.10;26.53;;;5.00;99.90;;;;;;5079941;28;20236;-84
2021/03/01 08:10:19;;;;;;;55.40;27.43;;;4.90;99.90;;;;;;5078037;28;20557;-85
2021/03/01 08:13:00;;;;;;;55.27;28.87;;;4.90;99.90;;;;;;5081841;28;20217;-84
2021/03/01 08:15:30;;;;;;;50.17;25.90;;;4.80;99.90;;;;;;5076425;28;20229;-85
2021/03/01 08:17:58;;;;;;;51.37;26.07;;;4.80;99.90;;;;;;5089853;28;20281;-85
2021/03/01 08:20:32;;;;;;;52.83;28.13;;;4.80;99.90;;;;;;5085877;28;20693;-85
2021/03/01 08:23:19;;;;;;;55.13;27.33;;;4.80;99.90;;;;;;5078035;28;20218;-84
2021/03/01 08:25:52;;;;;;;50.27;26.80;;;4.90;99.90;;;;;;5072145;28;20206;-84
2021/03/01 08:28:49;;;;;;;53.83;27.17;;;4.90;99.90;;;;;;5074766;28;20203;-85
2021/03/01 08:31:34;;;;;;;54.30;25.97;;;5.00;99.90;;;;;;5022790;28;20691;-85
2021/03/01 08:34:29;;;;;;;55.67;27.73;;;5.00;99.90;;;;;;5066388;28;20276;-85
2021/03/01 08:36:56;;;;;;;48.70;27.03;;;5.10;99.90;;;;;;5080292;28;20198;-84
2021/03/01 08:39:51;;;;;;;50.33;27.17;;;4.90;99.90;;;;;;5082468;28;20202;-85
2021/03/01 08:42:52;;;;;;;54.00;28.00;;;5.10;99.90;;;;;;5072377;28;20264;-85
2021/03/01 08:45:40;;;;;;;53.50;27.87;;;5.10;99.90;;;;;;5071766;28;20752;-85
2021/03/01 08:48:09;;;;;;;50.43;27.03;;;5.20;99.90;;;;;;5082188;28;20217;-84
2021/03/01 08:50:39;;;;;;;55.50;27.30;;;5.20;99.90;;;;;;5093664;28;20229;-85
2021/03/01 08:53:05;;;;;;;50.23;26.10;;;5.20;99.90;;;;;;5085451;28;20222;-84
2021/03/01 08:55:34;;;;;;;54.50;27.70;;;5.20;99.90;;;;;;5076307;28;20222;-84
2021/03/01 08:58:06;;;;;;;55.07;28.03;;;5.20;99.90;;;;;;5070530;28;20281;-84
2021/03/01 09:00:34;;;;;;;53.13;27.77;;;5.10;99.90;;;;;;5080410;28;20232;-84
2021/03/01 09:03:15;;;;;;;51.33;27.13;;;4.80;99.90;;;;;;5080692;28;20248;-84
2021/03/01 09:05:43;;;;;;;56.60;28.43;;;5.00;99.90;;;;;;5080467;28;20608;-84
2021/03/01 09:08:10;;;;;;;49.43;26.27;;;5.00;99.90;;;;;;5073112;28;20190;-84
2021/03/01 09:10:39;;;;;;;49.40;23.63;;;5.00;99.90;;;;;;5075708;28;20602;-85
2021/03/01 09:13:07;;;;;;;49.30;24.93;;;5.00;99.90;;;;;;5080961;28;20245;-84
2021/03/01 09:15:33;;;;;;;47.23;25.23;;;5.00;99.90;;;;;;5082593;28;20803;-85
2021/03/01 09:18:00;;;;;;;46.07;23.03;;;5.00;99.90;;;;;;5069024;28;20757;-84
2021/03/01 09:20:27;;;;;;;44.27;22.27;;;5.00;99.90;;;;;;5076482;28;20203;-84
2021/03/01 09:22:53;;;;;;;42.27;22.23;;;5.10;99.90;;;;;;5079003;28;20214;-84
2021/03/01 09:25:27;;;;;;;36.50;19.37;;;5.30;99.90;;;;;;5079784;28;20797;-84
2021/03/01 09:27:53;;;;;;;29.70;14.47;;;5.50;99.90;;;;;;5079668;28;20254;-84
2021/03/01 09:30:20;;;;;;;23.80;12.03;;;5.70;99.90;;;;;;5082577;28;20670;-85
2021/03/01 09:32:55;;;;;;;29.13;13.43;;;5.50;99.90;;;;;;5076855;28;20596;-85
2021/03/01 09:35:23;;;;;;;27.67;13.83;;;5.70;99.90;;;;;;5081289;28;20224;-85
2021/03/01 09:37:51;;;;;;;31.20;14.87;;;5.40;99.90;;;;;;5089120;28;20212;-84
2021/03/01 09:40:19;;;;;;;29.53;15.00;;;5.30;99.90;;;;;;5081841;28;20198;-85
2021/03/01 09:42:53;;;;;;;32.00;16.70;;;5.60;99.90;;;;;;5082795;28;20237;-85
2021/03/01 09:45:21;;;;;;;29.90;15.03;;;5.60;99.90;;;;;;5078936;28;20194;-85
2021/03/01 09:47:49;;;;;;;28.57;16.00;;;5.60;99.90;;;;;;5087418;28;20669;-85
2021/03/01 09:50:16;;;;;;;28.93;15.40;;;5.50;99.90;;;;;;5089349;28;20208;-85
2021/03/01 09:52:44;;;;;;;34.50;20.87;;;5.80;99.90;;;;;;5078849;28;20233;-85
2021/03/01 09:55:12;;;;;;;27.40;14.87;;;6.00;99.90;;;;;;5082797;28;20214;-85
2021/03/01 09:57:38;;;;;;;28.47;15.73;;;6.00;99.90;;;;;;5079191;28;20209;-85
2021/03/01 10:00:25;;;;;;;29.60;14.67;;;5.90;99.90;;;;;;5079772;28;20203;-85
2021/03/01 10:02:59;;;;;;;30.87;13.77;;;5.40;99.90;;;;;;5080403;28;20220;-85
2021/03/01 10:05:27;;;;;;;26.60;13.70;;;5.70;99.90;;;;;;5083606;28;20201;-85
2021/03/01 10:07:55;;;;;;;25.10;13.63;;;5.50;99.90;;;;;;5085474;28;20202;-84
2021/03/01 10:10:23;;;;;;;26.63;14.80;;;5.60;99.90;;;;;;5085958;28;20205;-85
2021/03/01 10:12:50;;;;;;;25.50;12.87;;;5.90;99.90;;;;;;5082715;28;20710;-85
2021/03/01 10:15:16;;;;;;;30.87;15.47;;;6.00;99.90;;;;;;5077425;28;20222;-85
2021/03/01 10:17:43;;;;;;;28.97;14.70;;;6.00;99.90;;;;;;5077324;28;20214;-85
2021/03/01 10:20:11;;;;;;;32.60;18.30;;;5.90;99.90;;;;;;5077457;28;20206;-85
2021/03/01 10:23:28;;;;;;;30.07;15.93;;;5.80;99.90;;;;;;5071779;28;20310;-85
2021/03/01 10:26:07;;;;;;;30.13;15.23;;;5.80;99.90;;;;;;4992994;28;20204;-84
2021/03/01 10:28:36;;;;;;;27.87;14.13;;;6.10;99.90;;;;;;5071587;28;20201;-85
2021/03/01 10:31:05;;;;;;;32.53;17.50;;;5.80;99.90;;;;;;5089644;28;20201;-85
2021/03/01 10:33:32;;;;;;;25.57;13.17;;;6.00;99.90;;;;;;5083203;28;20297;-84
2021/03/01 10:36:08;;;;;;;25.33;13.00;;;5.80;99.90;;;;;;5078432;28;20305;-86
2021/03/01 10:38:59;;;;;;;24.53;12.67;;;6.00;99.90;;;;;;5078852;28;20252;-85
2021/03/01 10:41:28;;;;;;;25.80;12.83;;;5.90;99.90;;;;;;5086767;28;20203;-85
2021/03/01 10:44:00;;;;;;;25.93;13.13;;;6.40;99.90;;;;;;5077627;28;20227;-85
2021/03/01 10:46:38;;;;;;;22.50;11.50;;;6.40;99.90;;;;;;5081781;28;20209;-85
2021/03/01 10:49:15;;;;;;;23.30;11.70;;;6.30;99.90;;;;;;5080679;28;20194;-85
2021/03/01 10:51:42;;;;;;;22.70;11.20;;;6.60;99.90;;;;;;5076745;28;20225;-84
2021/03/01 10:54:09;;;;;;;21.00;10.73;;;6.80;99.90;;;;;;5080978;28;20248;-85
2021/03/01 10:56:36;;;;;;;24.37;10.83;;;6.60;99.90;;;;;;5080608;28;20763;-85
2021/03/01 10:59:02;;;;;;;19.10;9.60;;;6.70;99.90;;;;;;5076686;28;20679;-86
2021/03/01 11:01:33;;;;;;;19.13;9.47;;;6.60;99.90;;;;;;5080346;28;20198;-85
2021/03/01 11:04:00;;;;;;;22.43;11.37;;;6.60;99.90;;;;;;5073440;28;20301;-86
2021/03/01 11:06:26;;;;;;;21.77;10.30;;;6.10;99.90;;;;;;5082065;28;20212;-85
2021/03/01 11:08:53;;;;;;;20.43;9.97;;;6.30;99.90;;;;;;5067525;28;20298;-84
2021/03/01 11:11:19;;;;;;;17.77;9.27;;;6.20;99.90;;;;;;5073862;28;20214;-85
2021/03/01 11:13:46;;;;;;;21.70;9.00;;;6.10;99.90;;;;;;5077404;28;20219;-85
2021/03/01 11:16:12;;;;;;;18.77;8.83;;;6.00;99.90;;;;;;5080314;28;20839;-84
2021/03/01 11:18:39;;;;;;;15.50;9.07;;;6.20;99.90;;;;;;5083798;28;20670;-84
2021/03/01 11:21:05;;;;;;;16.27;7.77;;;6.40;99.90;;;;;;5072854;28;20289;-84
2021/03/01 11:23:32;;;;;;;19.90;9.27;;;6.40;99.90;;;;;;5081251;28;20229;-85
2021/03/01 11:25:58;;;;;;;18.97;9.50;;;6.10;99.90;;;;;;5078030;28;20207;-85
2021/03/01 11:28:25;;;;;;;18.47;8.67;;;6.50;99.90;;;;;;5085167;28;20212;-86
2021/03/01 11:30:52;;;;;;;17.80;8.33;;;6.50;99.90;;;;;;5085000;28;20212;-85
2021/03/01 11:33:19;;;;;;;16.93;9.23;;;6.10;99.90;;;;;;5081000;28;20230;-86
2021/03/01 11:35:46;;;;;;;17.27;8.50;;;6.60;99.90;;;;;;5069299;28;20220;-85
2021/03/01 11:38:12;;;;;;;18.70;8.00;;;6.40;99.90;;;;;;5073690;28;20255;-85
2021/03/01 11:40:38;;;;;;;17.57;8.97;;;6.50;99.90;;;;;;5072633;28;20220;-85
2021/03/01 11:43:05;;;;;;;16.93;8.00;;;6.20;99.90;;;;;;5076918;28;20226;-85
2021/03/01 11:45:31;;;;;;;16.03;8.27;;;6.50;99.90;;;;;;5081586;28;20193;-88
2021/03/01 11:47:59;;;;;;;17.47;8.37;;;6.60;99.90;;;;;;5079998;28;20206;-86
2021/03/01 11:50:26;;;;;;;15.17;7.70;;;6.90;99.90;;;;;;5078136;28;20262;-85
2021/03/01 11:52:52;;;;;;;16.73;8.53;;;6.90;99.90;;;;;;5068995;28;20246;-85
2021/03/01 11:55:19;;;;;;;16.30;8.57;;;6.50;99.90;;;;;;5069185;28;20222;-86
2021/03/01 11:57:45;;;;;;;16.93;8.50;;;6.40;99.90;;;;;;5078578;28;20232;-85
2021/03/01 12:00:12;;;;;;;15.33;7.97;;;6.40;99.90;;;;;;5079541;28;20206;-85
2021/03/01 12:02:39;;;;;;;16.33;8.20;;;6.30;99.90;;;;;;5078137;28;20296;-85
2021/03/01 12:05:07;;;;;;;17.00;8.57;;;7.00;99.90;;;;;;5078084;28;20687;-85
2021/03/01 12:07:33;;;;;;;16.70;8.60;;;7.30;99.90;;;;;;5079230;28;20206;-85
2021/03/01 12:10:00;;;;;;;16.23;8.10;;;7.30;99.90;;;;;;5067969;28;20715;-85
2021/03/01 12:12:26;;;;;;;12.57;7.47;;;6.30;99.90;;;;;;5066490;28;20622;-85
2021/03/01 12:14:52;;;;;;;14.27;7.40;;;6.70;99.90;;;;;;5068597;28;20226;-85
2021/03/01 12:17:20;;;;;;;16.13;8.17;;;6.20;99.90;;;;;;5071408;28;20210;-85
2021/03/01 12:19:46;;;;;;;17.57;8.57;;;6.20;99.90;;;;;;5076814;28;20201;-85
2021/03/01 12:22:14;;;;;;;17.30;8.77;;;6.40;99.90;;;;;;5077575;28;20236;-84
2021/03/01 12:24:40;;;;;;;14.73;8.17;;;6.50;99.90;;;;;;5076602;28;20212;-84
2021/03/01 12:27:06;;;;;;;16.63;8.60;;;6.60;99.90;;;;;;5081174;28;20555;-85
2021/03/01 12:29:33;;;;;;;16.73;8.37;;;6.70;99.90;;;;;;5077947;28;20206;-83
2021/03/01 12:31:59;;;;;;;16.00;7.90;;;6.50;99.90;;;;;;5078570;28;21920;-84
2021/03/01 12:34:25;;;;;;;16.53;7.93;;;6.60;99.90;;;;;;5070706;28;20226;-84
2021/03/01 12:36:52;;;;;;;15.37;7.63;;;6.30;99.90;;;;;;5074043;28;20236;-85
2021/03/01 12:39:19;;;;;;;16.67;8.37;;;6.40;99.90;;;;;;5069005;28;20242;-85
2021/03/01 12:41:45;;;;;;;19.80;10.40;;;6.40;99.90;;;;;;5070641;28;20260;-85
2021/03/01 12:44:11;;;;;;;18.83;9.13;;;6.50;99.90;;;;;;5078941;28;20733;-86
2021/03/01 12:46:38;;;;;;;16.10;8.57;;;6.50;99.90;;;;;;5074061;28;20206;-86